Time;durP1;ratioP1;P1;durP2;ratioP2;P2;SDS_P1;SDS_P2;PMS_P1;PMS_P2;Temp;Humidity;BMP_temperature;BMP_pressure;BME280_temperature;BME280_humidity;BME280_pressure;Samples;Min_cycle;Max_cycle;Signal;HPM_P1;HPM_P2
2022/09/10 00:02:24;;;;;;;3.13;2.00;;;;;;;;;;4985807;28;20026;-60
2022/09/10 00:04:49;;;;;;;2.60;2.40;;;;;;;;;;4984461;28;20035;-61
2022/09/10 00:07:17;;;;;;;2.92;2.05;;;;;;;;;;4986625;28;20038;-61
2022/09/10 00:09:42;;;;;;;1.90;1.80;;;;;;;;;;4985326;28;20342;-59
2022/09/10 00:12:07;;;;;;;2.45;1.73;;;;;;;;;;4986881;28;20303;-61
2022/09/10 00:14:33;;;;;;;2.40;2.20;;;;;;;;;;4984531;28;20398;-61
2022/09/10 00:16:58;;;;;;;2.53;1.92;;;;;;;;;;4986194;28;20033;-60
2022/09/10 00:19:23;;;;;;;4.43;1.92;;;;;;;;;;4984720;28;20474;-60
2022/09/10 00:21:49;;;;;;;2.03;1.92;;;;;;;;;;4987006;28;20033;-60
2022/09/10 00:24:15;;;;;;;2.38;2.20;;;;;;;;;;4984139;28;20034;-60
2022/09/10 00:26:40;;;;;;;2.15;1.95;;;;;;;;;;4985527;28;20053;-60
2022/09/10 00:29:10;;;;;;;2.20;1.65;;;;;;;;;;4984562;28;20489;-59
2022/09/10 00:31:36;;;;;;;3.72;2.00;;;;;;;;;;4985457;28;20427;-60
2022/09/10 00:34:01;;;;;;;1.95;1.85;;;;;;;;;;4984434;28;20319;-60
2022/09/10 00:36:29;;;;;;;1.80;1.70;;;;;;;;;;4985353;28;20204;-60
2022/09/10 00:38:57;;;;;;;1.80;1.70;;;;;;;;;;4983765;28;20053;-62
2022/09/10 00:41:24;;;;;;;2.13;2.03;;;;;;;;;;4984665;28;20587;-62
2022/09/10 00:43:52;;;;;;;2.00;1.83;;;;;;;;;;4983420;28;20206;-61
2022/09/10 00:46:37;;;;;;;1.83;1.65;;;;;;;;;;4984282;28;20030;-63
2022/09/10 00:49:08;;;;;;;1.55;1.45;;;;;;;;;;4984768;28;20034;-61
2022/09/10 00:51:35;;;;;;;1.33;1.33;;;;;;;;;;4985086;28;20037;-62
2022/09/10 00:54:04;;;;;;;1.83;1.65;;;;;;;;;;4984508;28;20117;-61
2022/09/10 00:56:30;;;;;;;2.80;1.55;;;;;;;;;;4984813;28;20042;-61
2022/09/10 00:58:56;;;;;;;2.38;1.70;;;;;;;;;;4980378;28;20018;-61
2022/09/10 01:01:22;;;;;;;2.05;1.60;;;;;;;;;;4980795;28;20445;-62
2022/09/10 01:03:48;;;;;;;2.53;1.70;;;;;;;;;;4982399;28;20532;-61
2022/09/10 01:06:13;;;;;;;1.83;1.73;;;;;;;;;;4985702;28;20045;-61
2022/09/10 01:08:38;;;;;;;2.05;1.52;;;;;;;;;;4984563;28;20534;-62
2022/09/10 01:11:05;;;;;;;1.80;1.70;;;;;;;;;;4984584;28;20038;-61
2022/09/10 01:13:35;;;;;;;1.80;1.70;;;;;;;;;;4994983;28;20030;-62
2022/09/10 01:16:01;;;;;;;2.13;1.98;;;;;;;;;;4988930;28;20496;-62
2022/09/10 01:18:29;;;;;;;1.90;1.77;;;;;;;;;;4988520;28;20029;-61
2022/09/10 01:20:57;;;;;;;1.90;1.80;;;;;;;;;;4987605;28;20030;-62
2022/09/10 01:23:41;;;;;;;1.92;1.48;;;;;;;;;;4988065;28;20084;-61
2022/09/10 01:26:24;;;;;;;1.90;1.80;;;;;;;;;;4987885;28;20029;-60
2022/09/10 01:29:08;;;;;;;1.85;1.73;;;;;;;;;;4987791;28;20450;-61
2022/09/10 01:31:44;;;;;;;1.80;1.70;;;;;;;;;;4987122;28;20481;-60
2022/09/10 01:34:15;;;;;;;1.58;1.48;;;;;;;;;;4988993;28;20034;-60
2022/09/10 01:36:43;;;;;;;2.50;2.30;;;;;;;;;;4987959;28;20030;-60
2022/09/10 01:39:08;;;;;;;3.30;1.60;;;;;;;;;;4988480;28;20033;-60
2022/09/10 01:41:33;;;;;;;1.80;1.70;;;;;;;;;;4989250;28;20481;-60
2022/09/10 01:44:06;;;;;;;1.98;1.83;;;;;;;;;;4988018;28;20409;-60
2022/09/10 01:46:56;;;;;;;1.70;1.60;;;;;;;;;;4990251;28;20141;-61
2022/09/10 01:49:22;;;;;;;1.60;1.50;;;;;;;;;;4987755;28;20027;-61
2022/09/10 01:51:47;;;;;;;1.85;1.75;;;;;;;;;;4988066;28;20030;-61
2022/09/10 01:54:35;;;;;;;2.13;1.75;;;;;;;;;;4986970;28;20022;-60
2022/09/10 01:57:01;;;;;;;1.85;1.75;;;;;;;;;;4989631;28;20022;-60
2022/09/10 01:59:26;;;;;;;1.90;1.80;;;;;;;;;;4986969;28;20417;-61
2022/09/10 02:01:57;;;;;;;1.80;1.70;;;;;;;;;;4985114;28;20018;-60
2022/09/10 02:04:23;;;;;;;1.60;1.50;;;;;;;;;;4984835;28;20075;-60
2022/09/10 02:06:49;;;;;;;2.75;1.98;;;;;;;;;;4984704;28;20576;-60
2022/09/10 02:09:15;;;;;;;1.58;1.50;;;;;;;;;;5018103;28;20277;-61
2022/09/10 02:11:46;;;;;;;2.65;2.05;;;;;;;;;;4987974;28;20027;-61
2022/09/10 02:14:13;;;;;;;2.78;1.98;;;;;;;;;;4989021;28;20034;-60
2022/09/10 02:16:39;;;;;;;1.63;1.50;;;;;;;;;;4987264;28;20034;-61
2022/09/10 02:19:05;;;;;;;4.05;1.67;;;;;;;;;;4989757;28;20067;-61
2022/09/10 02:21:30;;;;;;;1.95;1.50;;;;;;;;;;4987322;28;20401;-61
2022/09/10 02:24:06;;;;;;;1.80;1.52;;;;;;;;;;4987212;28;20031;-61
2022/09/10 02:26:32;;;;;;;1.95;1.77;;;;;;;;;;4987340;28;20372;-60
2022/09/10 02:28:59;;;;;;;1.95;1.80;;;;;;;;;;4987559;28;20240;-60
2022/09/10 02:31:24;;;;;;;1.60;1.50;;;;;;;;;;4989977;28;20448;-60
2022/09/10 02:33:50;;;;;;;2.03;1.90;;;;;;;;;;4985171;28;20083;-64
2022/09/10 02:36:15;;;;;;;2.22;2.08;;;;;;;;;;4988462;28;20562;-61
2022/09/10 02:38:40;;;;;;;1.88;1.77;;;;;;;;;;4987978;28;20112;-61
2022/09/10 02:41:08;;;;;;;3.70;1.80;;;;;;;;;;4987340;28;20322;-61
2022/09/10 02:43:35;;;;;;;2.03;1.83;;;;;;;;;;4987557;28;20025;-61
2022/09/10 02:46:01;;;;;;;1.90;1.80;;;;;;;;;;4988660;28;20022;-61
2022/09/10 02:48:26;;;;;;;1.80;1.70;;;;;;;;;;4987798;28;20030;-60
2022/09/10 02:50:52;;;;;;;2.30;1.90;;;;;;;;;;4987476;28;20026;-61
2022/09/10 02:53:18;;;;;;;3.10;1.80;;;;;;;;;;4986733;28;20026;-61
2022/09/10 02:55:45;;;;;;;2.10;2.00;;;;;;;;;;4986079;28;20073;-61
2022/09/10 02:58:12;;;;;;;3.70;2.05;;;;;;;;;;4987864;28;20557;-61
2022/09/10 03:00:37;;;;;;;2.00;1.90;;;;;;;;;;4986764;28;20037;-60
2022/09/10 03:03:02;;;;;;;2.00;1.88;;;;;;;;;;4986285;28;20034;-60
2022/09/10 03:05:28;;;;;;;1.80;1.70;;;;;;;;;;4986988;28;20025;-60
2022/09/10 03:07:54;;;;;;;1.80;1.70;;;;;;;;;;4985795;28;20141;-60
2022/09/10 03:10:19;;;;;;;2.30;2.10;;;;;;;;;;4986593;28;20049;-61
2022/09/10 03:12:46;;;;;;;3.25;2.22;;;;;;;;;;4984843;28;20512;-61
2022/09/10 03:15:12;;;;;;;1.85;1.77;;;;;;;;;;4987316;28;20924;-61
2022/09/10 03:17:37;;;;;;;1.80;1.70;;;;;;;;;;4986787;28;20030;-61
2022/09/10 03:20:02;;;;;;;2.65;2.08;;;;;;;;;;4986066;28;20022;-62
2022/09/10 03:22:28;;;;;;;1.90;1.80;;;;;;;;;;4987005;28;20042;-62
2022/09/10 03:24:53;;;;;;;2.25;2.15;;;;;;;;;;4987847;28;20026;-62
2022/09/10 03:27:19;;;;;;;2.20;2.10;;;;;;;;;;4987593;28;20050;-61
2022/09/10 03:29:44;;;;;;;2.67;2.08;;;;;;;;;;4985777;28;20022;-61
2022/09/10 03:32:10;;;;;;;2.05;1.90;;;;;;;;;;4987282;28;20393;-61
2022/09/10 03:34:35;;;;;;;2.22;2.10;;;;;;;;;;4987057;28;20377;-61
2022/09/10 03:37:00;;;;;;;2.72;2.00;;;;;;;;;;4984918;28;20045;-61
2022/09/10 03:39:25;;;;;;;4.68;2.55;;;;;;;;;;4986471;28;20018;-61
2022/09/10 03:41:50;;;;;;;3.25;1.88;;;;;;;;;;4985187;28;20029;-62
2022/09/10 03:44:16;;;;;;;2.10;2.00;;;;;;;;;;4985639;28;20226;-61
2022/09/10 03:46:41;;;;;;;1.95;1.65;;;;;;;;;;4985441;28;20039;-62
2022/09/10 03:49:07;;;;;;;1.88;1.77;;;;;;;;;;4985921;28;20507;-61
2022/09/10 03:51:32;;;;;;;2.45;2.03;;;;;;;;;;4985797;28;20338;-61
2022/09/10 03:53:58;;;;;;;2.08;1.73;;;;;;;;;;4983929;28;21021;-63
2022/09/10 03:56:24;;;;;;;4.13;1.70;;;;;;;;;;4984552;28;20057;-61
2022/09/10 03:58:50;;;;;;;2.22;2.03;;;;;;;;;;4986367;28;20263;-61
2022/09/10 04:01:16;;;;;;;2.00;1.73;;;;;;;;;;5018358;28;20021;-61
2022/09/10 04:03:41;;;;;;;1.85;1.70;;;;;;;;;;4985766;28;20041;-60
2022/09/10 04:06:10;;;;;;;1.70;1.60;;;;;;;;;;4985580;28;20026;-60
2022/09/10 04:08:36;;;;;;;1.60;1.55;;;;;;;;;;4985695;28;20042;-61
2022/09/10 04:11:02;;;;;;;1.95;1.73;;;;;;;;;;4986611;28;20036;-62
2022/09/10 04:13:27;;;;;;;2.38;1.40;;;;;;;;;;4984890;28;20018;-60
2022/09/10 04:15:54;;;;;;;1.63;1.52;;;;;;;;;;4984590;28;20152;-61
2022/09/10 04:18:19;;;;;;;2.85;1.73;;;;;;;;;;4985296;28;20113;-59
2022/09/10 04:20:46;;;;;;;1.40;1.40;;;;;;;;;;4981488;28;20034;-60
2022/09/10 04:23:11;;;;;;;1.67;1.58;;;;;;;;;;4985917;28;20026;-60
2022/09/10 04:25:36;;;;;;;1.42;1.05;;;;;;;;;;4994809;28;20022;-59
2022/09/10 04:28:01;;;;;;;1.95;1.75;;;;;;;;;;4993443;28;20054;-59
2022/09/10 04:30:27;;;;;;;1.50;1.40;;;;;;;;;;4991571;28;20038;-60
2022/09/10 04:32:53;;;;;;;1.42;1.33;;;;;;;;;;4990695;28;20030;-60
2022/09/10 04:35:19;;;;;;;2.58;1.40;;;;;;;;;;4985063;28;20054;-60
2022/09/10 04:37:44;;;;;;;1.30;1.30;;;;;;;;;;5018838;28;20121;-60
2022/09/10 04:40:10;;;;;;;1.38;1.38;;;;;;;;;;4992729;28;20033;-60
2022/09/10 04:42:35;;;;;;;1.45;1.17;;;;;;;;;;4990199;28;20034;-60
2022/09/10 04:45:00;;;;;;;1.33;1.23;;;;;;;;;;5018821;28;20037;-60
2022/09/10 04:47:25;;;;;;;3.17;1.15;;;;;;;;;;4990763;28;20081;-60
2022/09/10 04:49:51;;;;;;;3.72;1.83;;;;;;;;;;4992128;28;20030;-60
2022/09/10 04:52:16;;;;;;;1.17;1.17;;;;;;;;;;4992142;28;20030;-60
2022/09/10 04:54:42;;;;;;;1.55;1.23;;;;;;;;;;4992566;28;20057;-60
2022/09/10 04:57:07;;;;;;;1.00;1.00;;;;;;;;;;4990538;28;20145;-60
2022/09/10 04:59:33;;;;;;;3.53;1.50;;;;;;;;;;4989591;28;20064;-62
2022/09/10 05:01:59;;;;;;;1.30;1.25;;;;;;;;;;4990225;28;20140;-60
2022/09/10 05:04:24;;;;;;;1.77;1.52;;;;;;;;;;4991105;28;20442;-61
2022/09/10 05:06:49;;;;;;;1.58;1.13;;;;;;;;;;4989260;28;20045;-61
2022/09/10 05:09:18;;;;;;;1.33;1.33;;;;;;;;;;4991366;28;20033;-61
2022/09/10 05:11:43;;;;;;;1.52;1.35;;;;;;;;;;4991063;28;20034;-61
2022/09/10 05:14:08;;;;;;;2.92;1.45;;;;;;;;;;4990855;28;20048;-61
2022/09/10 05:16:35;;;;;;;1.40;1.30;;;;;;;;;;4992015;28;20029;-61
2022/09/10 05:19:00;;;;;;;1.52;1.42;;;;;;;;;;5022129;28;20049;-61
2022/09/10 05:21:25;;;;;;;2.35;1.20;;;;;;;;;;4991479;28;20054;-61
2022/09/10 05:23:50;;;;;;;1.95;1.30;;;;;;;;;;4992143;28;20487;-60
2022/09/10 05:26:16;;;;;;;2.60;1.65;;;;;;;;;;4989643;28;20337;-63
2022/09/10 05:28:41;;;;;;;2.50;1.20;;;;;;;;;;4990752;28;20472;-61
2022/09/10 05:31:08;;;;;;;1.50;1.08;;;;;;;;;;4990589;28;20022;-61
2022/09/10 05:33:34;;;;;;;4.22;1.30;;;;;;;;;;4991176;28;20141;-61
2022/09/10 05:35:59;;;;;;;1.25;1.20;;;;;;;;;;4991551;28;20030;-61
2022/09/10 05:38:25;;;;;;;1.58;1.20;;;;;;;;;;4991458;28;20084;-61
2022/09/10 05:40:50;;;;;;;1.23;1.10;;;;;;;;;;4991482;28;20037;-63
2022/09/10 05:43:16;;;;;;;1.40;1.38;;;;;;;;;;4990993;28;20480;-63
2022/09/10 05:45:41;;;;;;;2.15;1.50;;;;;;;;;;4991787;28;20033;-62
2022/09/10 05:48:06;;;;;;;1.40;1.30;;;;;;;;;;4988336;28;20434;-63
2022/09/10 05:50:31;;;;;;;2.47;1.50;;;;;;;;;;4987881;28;20451;-62
2022/09/10 05:52:57;;;;;;;2.30;1.25;;;;;;;;;;4988509;28;20429;-62
2022/09/10 05:55:22;;;;;;;1.33;1.23;;;;;;;;;;4987705;28;20489;-62
2022/09/10 05:57:48;;;;;;;4.45;1.50;;;;;;;;;;4988534;28;20044;-60
2022/09/10 06:00:14;;;;;;;1.40;1.30;;;;;;;;;;4991406;28;20065;-63
2022/09/10 06:02:40;;;;;;;1.17;1.17;;;;;;;;;;4990984;28;20488;-60
2022/09/10 06:05:06;;;;;;;1.35;1.25;;;;;;;;;;4994185;28;20085;-60
2022/09/10 06:07:31;;;;;;;2.10;1.98;;;;;;;;;;4993403;28;20837;-61
2022/09/10 06:09:57;;;;;;;1.60;1.50;;;;;;;;;;4994611;28;20038;-62
2022/09/10 06:12:22;;;;;;;2.65;1.77;;;;;;;;;;4993849;28;20026;-61
2022/09/10 06:14:48;;;;;;;3.08;1.30;;;;;;;;;;4992668;28;20449;-61
2022/09/10 06:17:15;;;;;;;1.10;1.10;;;;;;;;;;4990105;28;20034;-61
2022/09/10 06:19:43;;;;;;;1.50;1.40;;;;;;;;;;4990656;28;20472;-60
2022/09/10 06:22:09;;;;;;;2.20;1.27;;;;;;;;;;4994134;28;20017;-59
2022/09/10 06:24:35;;;;;;;1.55;1.42;;;;;;;;;;4992311;28;20038;-61
2022/09/10 06:27:01;;;;;;;1.35;1.23;;;;;;;;;;4988873;28;20600;-60
2022/09/10 06:29:27;;;;;;;1.10;1.00;;;;;;;;;;5023552;28;20026;-61
2022/09/10 06:31:52;;;;;;;1.75;1.20;;;;;;;;;;4990890;28;20148;-62
2022/09/10 06:34:17;;;;;;;2.10;1.13;;;;;;;;;;4991736;28;20388;-60
2022/09/10 06:36:44;;;;;;;1.13;1.13;;;;;;;;;;4994003;28;20046;-61
2022/09/10 06:39:09;;;;;;;1.17;1.15;;;;;;;;;;4990194;28;20026;-61
2022/09/10 06:41:36;;;;;;;3.00;1.02;;;;;;;;;;4990028;28;20040;-60
2022/09/10 06:44:01;;;;;;;1.67;1.58;;;;;;;;;;4991246;28;20041;-61
2022/09/10 06:46:26;;;;;;;0.90;0.90;;;;;;;;;;4988258;28;20081;-61
2022/09/10 06:48:52;;;;;;;1.00;1.00;;;;;;;;;;4990262;28;20461;-61
2022/09/10 06:51:17;;;;;;;4.00;1.20;;;;;;;;;;4989389;28;20503;-61
2022/09/10 06:53:44;;;;;;;1.70;0.90;;;;;;;;;;4991734;28;20487;-60
2022/09/10 06:56:11;;;;;;;0.95;0.90;;;;;;;;;;4993439;28;20538;-60
2022/09/10 06:58:37;;;;;;;1.10;1.00;;;;;;;;;;4990968;28;20073;-60
2022/09/10 07:01:10;;;;;;;1.17;1.08;;;;;;;;;;4989265;28;20089;-60
2022/09/10 07:03:36;;;;;;;0.90;0.90;;;;;;;;;;4990173;28;20030;-59
2022/09/10 07:06:05;;;;;;;1.10;0.85;;;;;;;;;;4989458;28;20037;-60
2022/09/10 07:08:31;;;;;;;2.60;0.95;;;;;;;;;;4992124;28;20036;-60
2022/09/10 07:10:58;;;;;;;0.90;0.90;;;;;;;;;;4992848;28;20034;-60
2022/09/10 07:13:24;;;;;;;1.70;1.00;;;;;;;;;;4992734;28;20140;-60
2022/09/10 07:15:49;;;;;;;1.00;1.00;;;;;;;;;;4994114;28;20128;-60
2022/09/10 07:18:15;;;;;;;1.02;0.88;;;;;;;;;;4992251;28;20378;-61
2022/09/10 07:20:42;;;;;;;2.92;1.15;;;;;;;;;;4992567;28;20026;-60
2022/09/10 07:23:08;;;;;;;2.45;1.00;;;;;;;;;;4991330;28;20022;-60
2022/09/10 07:25:33;;;;;;;2.17;1.48;;;;;;;;;;4994011;28;20420;-60
2022/09/10 07:28:00;;;;;;;1.65;1.10;;;;;;;;;;4991965;28;20522;-61
2022/09/10 07:30:26;;;;;;;1.13;0.80;;;;;;;;;;4997049;28;20397;-62
2022/09/10 07:32:52;;;;;;;0.90;0.90;;;;;;;;;;4989405;28;20096;-61
2022/09/10 07:35:17;;;;;;;1.58;1.00;;;;;;;;;;4993694;28;20749;-61
2022/09/10 07:37:43;;;;;;;1.60;1.05;;;;;;;;;;4993693;28;20515;-61
2022/09/10 07:40:08;;;;;;;1.17;1.08;;;;;;;;;;4993131;28;20034;-62
2022/09/10 07:42:36;;;;;;;0.95;0.93;;;;;;;;;;4992929;28;20469;-60
2022/09/10 07:45:01;;;;;;;0.98;0.98;;;;;;;;;;4992957;28;20432;-60
2022/09/10 07:47:26;;;;;;;0.93;0.90;;;;;;;;;;4991749;28;20126;-61
2022/09/10 07:49:51;;;;;;;0.90;0.90;;;;;;;;;;4989689;28;20461;-60
2022/09/10 07:52:17;;;;;;;1.00;0.85;;;;;;;;;;4987244;28;20121;-61
2022/09/10 07:54:42;;;;;;;1.55;1.00;;;;;;;;;;4990690;28;20041;-62
2022/09/10 07:57:08;;;;;;;0.80;0.80;;;;;;;;;;4987842;28;20030;-62
2022/09/10 07:59:33;;;;;;;2.60;0.98;;;;;;;;;;4990176;28;20408;-61
2022/09/10 08:01:59;;;;;;;1.58;0.85;;;;;;;;;;4991582;28;20388;-62
2022/09/10 08:04:24;;;;;;;1.70;1.30;;;;;;;;;;4988319;28;20062;-62
2022/09/10 08:06:50;;;;;;;1.70;1.10;;;;;;;;;;4986175;28;20042;-62
2022/09/10 08:09:18;;;;;;;3.17;1.02;;;;;;;;;;4993062;28;20034;-62
2022/09/10 08:11:43;;;;;;;1.55;1.45;;;;;;;;;;4994215;28;20400;-62
2022/09/10 08:14:08;;;;;;;2.40;1.35;;;;;;;;;;4990592;28;20033;-63
2022/09/10 08:16:35;;;;;;;0.82;0.80;;;;;;;;;;4988560;28;20043;-63
2022/09/10 08:19:00;;;;;;;4.78;1.65;;;;;;;;;;4996025;28;20536;-62
2022/09/10 08:21:28;;;;;;;1.58;0.93;;;;;;;;;;4990852;28;20156;-62
2022/09/10 08:23:54;;;;;;;1.15;1.10;;;;;;;;;;4989401;28;20517;-62
2022/09/10 08:26:22;;;;;;;1.20;0.93;;;;;;;;;;4999472;28;20100;-61
2022/09/10 08:28:47;;;;;;;1.13;1.02;;;;;;;;;;4991661;28;20054;-62
2022/09/10 08:31:13;;;;;;;1.00;1.00;;;;;;;;;;4990993;28;20045;-61
2022/09/10 08:33:38;;;;;;;1.27;1.00;;;;;;;;;;4989979;28;20030;-62
2022/09/10 08:36:04;;;;;;;4.00;1.00;;;;;;;;;;4993888;28;20034;-62
2022/09/10 08:38:31;;;;;;;1.42;0.90;;;;;;;;;;4991560;28;20026;-62
2022/09/10 08:40:58;;;;;;;1.67;1.00;;;;;;;;;;4989441;28;20018;-61
2022/09/10 08:43:37;;;;;;;3.05;0.90;;;;;;;;;;4992486;28;20034;-61
2022/09/10 08:46:04;;;;;;;1.52;1.15;;;;;;;;;;4992564;28;20034;-62
2022/09/10 08:48:31;;;;;;;1.77;0.90;;;;;;;;;;4991449;28;20036;-61
2022/09/10 08:50:59;;;;;;;0.90;0.90;;;;;;;;;;4991862;28;20022;-61
2022/09/10 08:53:25;;;;;;;1.05;0.93;;;;;;;;;;4991037;28;20023;-61
2022/09/10 08:55:54;;;;;;;0.90;0.90;;;;;;;;;;4992393;28;20570;-62
2022/09/10 08:58:21;;;;;;;0.93;0.93;;;;;;;;;;4991159;28;20058;-61
2022/09/10 09:00:48;;;;;;;1.20;1.10;;;;;;;;;;4991938;28;20543;-57
2022/09/10 09:03:20;;;;;;;1.35;1.00;;;;;;;;;;4990063;28;20026;-61
2022/09/10 09:05:47;;;;;;;1.35;1.20;;;;;;;;;;4989784;28;20036;-59
2022/09/10 09:08:14;;;;;;;1.55;1.00;;;;;;;;;;4987518;28;20037;-60
2022/09/10 09:10:46;;;;;;;1.00;0.88;;;;;;;;;;4989761;28;20080;-61
2022/09/10 09:13:30;;;;;;;1.60;1.00;;;;;;;;;;4986707;28;20030;-61
2022/09/10 09:16:04;;;;;;;1.10;1.00;;;;;;;;;;4987546;28;20499;-62
2022/09/10 09:18:44;;;;;;;1.00;1.00;;;;;;;;;;4991088;28;20038;-64
2022/09/10 09:21:14;;;;;;;1.67;1.00;;;;;;;;;;4990970;28;20033;-58
2022/09/10 09:24:09;;;;;;;1.05;0.95;;;;;;;;;;4990827;28;20031;-59
2022/09/10 09:26:35;;;;;;;3.10;1.13;;;;;;;;;;4978850;28;20038;-59
2022/09/10 09:29:06;;;;;;;1.52;1.42;;;;;;;;;;4989913;28;20030;-60
2022/09/10 09:31:35;;;;;;;1.42;1.33;;;;;;;;;;4993013;28;20195;-69
2022/09/10 09:34:23;;;;;;;1.90;1.20;;;;;;;;;;4993653;28;20032;-69
2022/09/10 09:36:51;;;;;;;1.27;0.90;;;;;;;;;;4994652;28;20050;-71
2022/09/10 09:39:26;;;;;;;1.85;1.15;;;;;;;;;;4993090;28;20496;-68
2022/09/10 09:41:54;;;;;;;1.02;1.02;;;;;;;;;;4994824;28;20484;-68
2022/09/10 09:44:33;;;;;;;1.23;1.00;;;;;;;;;;4993138;28;20026;-69
2022/09/10 09:46:58;;;;;;;0.95;0.95;;;;;;;;;;4993792;28;20014;-70
2022/09/10 09:49:24;;;;;;;1.10;0.90;;;;;;;;;;4995345;28;20084;-69
2022/09/10 09:51:50;;;;;;;1.42;0.98;;;;;;;;;;4991183;28;20043;-69
2022/09/10 09:54:25;;;;;;;1.75;1.30;;;;;;;;;;4990474;28;20455;-71
2022/09/10 09:56:51;;;;;;;1.40;1.30;;;;;;;;;;4992426;28;20057;-70
2022/09/10 09:59:26;;;;;;;2.30;1.40;;;;;;;;;;4990600;28;20034;-70
2022/09/10 10:01:51;;;;;;;1.08;0.98;;;;;;;;;;4993226;28;20018;-68
2022/09/10 10:04:20;;;;;;;3.08;1.25;;;;;;;;;;4996413;28;20037;-68
2022/09/10 10:06:46;;;;;;;1.25;1.15;;;;;;;;;;4995068;28;20054;-68
2022/09/10 10:09:19;;;;;;;2.85;1.08;;;;;;;;;;4995021;28;20029;-69
2022/09/10 10:11:52;;;;;;;1.23;1.13;;;;;;;;;;4994412;28;20054;-68
2022/09/10 10:14:18;;;;;;;1.00;0.95;;;;;;;;;;4994101;28;20122;-70
2022/09/10 10:16:47;;;;;;;1.55;1.02;;;;;;;;;;4994835;28;20380;-68
2022/09/10 10:19:35;;;;;;;1.17;1.08;;;;;;;;;;4994302;28;20022;-69
2022/09/10 10:22:18;;;;;;;2.63;1.15;;;;;;;;;;4991273;28;20592;-69
2022/09/10 10:24:45;;;;;;;1.17;1.10;;;;;;;;;;4989466;28;20038;-67
2022/09/10 10:27:16;;;;;;;2.53;1.38;;;;;;;;;;4992794;28;20065;-68
2022/09/10 10:29:49;;;;;;;1.23;0.90;;;;;;;;;;4993816;28;20023;-69
2022/09/10 10:32:15;;;;;;;1.48;1.08;;;;;;;;;;4994048;28;20049;-68
2022/09/10 10:34:40;;;;;;;3.53;1.45;;;;;;;;;;4993204;28;20550;-69
2022/09/10 10:37:15;;;;;;;1.20;1.10;;;;;;;;;;4994101;28;20038;-69
2022/09/10 10:39:49;;;;;;;1.52;1.10;;;;;;;;;;4993651;28;20564;-70
2022/09/10 10:42:33;;;;;;;0.95;0.90;;;;;;;;;;4994845;28;20031;-70
2022/09/10 10:45:14;;;;;;;1.52;0.90;;;;;;;;;;4994319;28;20022;-69
2022/09/10 10:47:45;;;;;;;1.77;1.00;;;;;;;;;;4994534;28;20033;-70
2022/09/10 10:50:29;;;;;;;1.63;0.98;;;;;;;;;;4994853;28;20041;-70
2022/09/10 10:53:00;;;;;;;2.40;1.05;;;;;;;;;;4994094;28;20137;-68
2022/09/10 10:55:38;;;;;;;1.35;1.23;;;;;;;;;;4994514;28;20026;-70
2022/09/10 10:58:06;;;;;;;1.15;1.05;;;;;;;;;;4994258;28;20131;-69
2022/09/10 11:00:39;;;;;;;2.83;1.20;;;;;;;;;;4992327;28;20060;-70
2022/09/10 11:03:25;;;;;;;1.90;1.00;;;;;;;;;;4994741;28;20030;-70
2022/09/10 11:05:55;;;;;;;0.93;0.93;;;;;;;;;;4993181;28;20069;-70
2022/09/10 11:08:25;;;;;;;3.55;1.27;;;;;;;;;;4995271;28;20045;-69
2022/09/10 11:10:59;;;;;;;1.65;1.00;;;;;;;;;;4996131;28;20428;-70
2022/09/10 11:13:44;;;;;;;1.23;1.13;;;;;;;;;;5002370;28;20033;-70
2022/09/10 11:16:24;;;;;;;1.13;0.90;;;;;;;;;;4993180;28;20065;-70
2022/09/10 11:18:56;;;;;;;1.20;1.17;;;;;;;;;;4994313;28;20023;-70
2022/09/10 11:21:25;;;;;;;0.90;0.90;;;;;;;;;;4994682;28;20091;-69
2022/09/10 11:23:55;;;;;;;1.05;1.05;;;;;;;;;;4990173;28;20022;-68
2022/09/10 11:26:23;;;;;;;1.80;1.40;;;;;;;;;;4989460;28;20026;-68
2022/09/10 11:29:06;;;;;;;1.27;1.17;;;;;;;;;;4993748;28;20109;-69
2022/09/10 11:31:34;;;;;;;2.47;1.15;;;;;;;;;;4993446;28;20030;-69
2022/09/10 11:34:04;;;;;;;1.10;1.10;;;;;;;;;;4992576;28;20025;-68
2022/09/10 11:36:34;;;;;;;1.83;1.20;;;;;;;;;;4993605;28;20511;-68
2022/09/10 11:39:05;;;;;;;3.50;1.30;;;;;;;;;;4993907;28;20539;-70
2022/09/10 11:41:31;;;;;;;1.63;1.00;;;;;;;;;;4993015;28;20025;-68
2022/09/10 11:44:15;;;;;;;1.00;1.00;;;;;;;;;;4993025;28;20045;-68
2022/09/10 11:46:40;;;;;;;1.00;1.00;;;;;;;;;;4993445;28;20568;-70
2022/09/10 11:49:10;;;;;;;1.00;1.00;;;;;;;;;;4993451;28;20030;-70
2022/09/10 11:51:36;;;;;;;1.15;1.15;;;;;;;;;;4993779;28;20041;-71
2022/09/10 11:54:03;;;;;;;2.53;1.23;;;;;;;;;;4993848;28;20568;-70
2022/09/10 11:56:28;;;;;;;1.95;1.30;;;;;;;;;;4991920;28;20412;-70
2022/09/10 11:59:01;;;;;;;1.40;1.20;;;;;;;;;;4992362;28;20041;-70
2022/09/10 12:01:29;;;;;;;1.23;1.10;;;;;;;;;;4993501;28;20037;-70
2022/09/10 12:04:13;;;;;;;1.00;0.90;;;;;;;;;;4993706;28;20033;-68
2022/09/10 12:06:51;;;;;;;1.08;1.08;;;;;;;;;;4991799;28;20109;-69
2022/09/10 12:09:23;;;;;;;1.20;1.08;;;;;;;;;;4997015;28;20026;-71
2022/09/10 12:11:57;;;;;;;1.58;1.30;;;;;;;;;;4989726;28;20129;-69
2022/09/10 12:14:22;;;;;;;0.90;0.90;;;;;;;;;;4994334;28;20029;-69
2022/09/10 12:16:49;;;;;;;1.50;1.20;;;;;;;;;;4992769;28;20112;-70
2022/09/10 12:19:36;;;;;;;1.65;1.35;;;;;;;;;;4993920;28;20145;-69
2022/09/10 12:22:20;;;;;;;1.33;1.23;;;;;;;;;;4992107;28;20030;-69
2022/09/10 12:24:54;;;;;;;1.10;0.90;;;;;;;;;;4993429;28;20184;-69
2022/09/10 12:27:19;;;;;;;1.25;1.13;;;;;;;;;;4991663;28;20101;-70
2022/09/10 12:29:45;;;;;;;2.45;1.70;;;;;;;;;;4992384;28;20134;-70
2022/09/10 12:32:24;;;;;;;2.25;1.08;;;;;;;;;;4991368;28;20104;-70
2022/09/10 12:35:10;;;;;;;1.02;0.90;;;;;;;;;;4992471;28;20092;-70
2022/09/10 12:37:35;;;;;;;0.80;0.80;;;;;;;;;;4992078;28;20120;-69
2022/09/10 12:40:19;;;;;;;1.17;1.10;;;;;;;;;;4993622;28;20034;-70
2022/09/10 12:42:45;;;;;;;1.27;1.20;;;;;;;;;;4993787;28;20053;-70
2022/09/10 12:45:10;;;;;;;1.17;0.98;;;;;;;;;;4994609;28;20419;-70
2022/09/10 12:47:40;;;;;;;1.20;1.20;;;;;;;;;;4990319;28;20091;-67
2022/09/10 12:50:17;;;;;;;2.00;1.05;;;;;;;;;;4992468;28;20030;-69
2022/09/10 12:52:51;;;;;;;3.63;1.70;;;;;;;;;;4992461;28;20161;-69
2022/09/10 12:55:35;;;;;;;0.90;0.90;;;;;;;;;;4993471;28;20037;-69
2022/09/10 12:58:04;;;;;;;0.90;0.90;;;;;;;;;;4990547;28;20061;-69
2022/09/10 13:00:41;;;;;;;1.60;0.90;;;;;;;;;;4992826;28;20026;-69
2022/09/10 13:03:06;;;;;;;0.80;0.80;;;;;;;;;;4992457;28;20029;-68
2022/09/10 13:05:38;;;;;;;0.77;0.77;;;;;;;;;;4993299;28;20400;-69
2022/09/10 13:08:03;;;;;;;0.60;0.60;;;;;;;;;;4989882;28;20062;-70
2022/09/10 13:10:29;;;;;;;0.80;0.80;;;;;;;;;;4992458;28;20109;-69
2022/09/10 13:12:57;;;;;;;0.73;0.73;;;;;;;;;;4993681;28;20464;-69
2022/09/10 13:15:24;;;;;;;0.70;0.70;;;;;;;;;;4992591;28;20122;-70
2022/09/10 13:17:50;;;;;;;0.77;0.77;;;;;;;;;;4993146;28;20033;-69
2022/09/10 13:20:18;;;;;;;1.00;0.90;;;;;;;;;;4997064;28;20421;-69
2022/09/10 13:22:55;;;;;;;0.70;0.70;;;;;;;;;;4994573;28;20026;-70
2022/09/10 13:25:25;;;;;;;1.50;0.82;;;;;;;;;;4992992;28;20044;-70
2022/09/10 13:27:50;;;;;;;0.80;0.80;;;;;;;;;;4993018;28;20212;-69
2022/09/10 13:30:16;;;;;;;0.90;0.90;;;;;;;;;;4996036;28;20033;-70
2022/09/10 13:32:54;;;;;;;1.25;0.63;;;;;;;;;;5027909;28;20092;-69
2022/09/10 13:35:19;;;;;;;1.23;1.10;;;;;;;;;;4996189;28;20058;-71
2022/09/10 13:38:10;;;;;;;0.68;0.68;;;;;;;;;;4995970;28;20125;-70
2022/09/10 13:40:55;;;;;;;0.75;0.75;;;;;;;;;;4997038;28;20031;-70
2022/09/10 13:43:33;;;;;;;1.75;0.73;;;;;;;;;;5028933;28;20469;-69
2022/09/10 13:46:01;;;;;;;0.88;0.88;;;;;;;;;;4995710;28;20551;-69
2022/09/10 13:48:42;;;;;;;0.77;0.77;;;;;;;;;;4992314;28;20033;-70
2022/09/10 13:51:07;;;;;;;0.65;0.65;;;;;;;;;;5011040;28;20027;-70
2022/09/10 13:53:33;;;;;;;0.70;0.70;;;;;;;;;;4994065;28;20026;-68
2022/09/10 13:56:06;;;;;;;0.70;0.70;;;;;;;;;;4995591;28;20034;-68
2022/09/10 13:58:34;;;;;;;0.70;0.70;;;;;;;;;;4991309;28;20042;-69
2022/09/10 14:01:02;;;;;;;0.70;0.70;;;;;;;;;;4993521;28;20088;-69
2022/09/10 14:03:31;;;;;;;0.68;0.68;;;;;;;;;;4994753;28;20066;-69
2022/09/10 14:06:00;;;;;;;0.70;0.70;;;;;;;;;;4996124;28;20030;-69
2022/09/10 14:08:31;;;;;;;0.70;0.70;;;;;;;;;;4994082;28;20038;-70
2022/09/10 14:10:59;;;;;;;0.80;0.80;;;;;;;;;;4995162;28;20022;-69
2022/09/10 14:13:32;;;;;;;0.60;0.60;;;;;;;;;;4994850;28;20591;-69
2022/09/10 14:15:59;;;;;;;0.93;0.70;;;;;;;;;;4995206;28;20034;-69
2022/09/10 14:18:30;;;;;;;0.73;0.73;;;;;;;;;;4994793;28;20035;-70
2022/09/10 14:20:56;;;;;;;0.80;0.80;;;;;;;;;;4994233;28;20331;-69
2022/09/10 14:23:21;;;;;;;1.45;0.90;;;;;;;;;;5027726;28;20540;-69
2022/09/10 14:25:47;;;;;;;0.60;0.60;;;;;;;;;;4995513;28;20049;-70
2022/09/10 14:28:18;;;;;;;1.63;0.98;;;;;;;;;;5003375;28;20077;-69
2022/09/10 14:30:47;;;;;;;0.75;0.75;;;;;;;;;;4996324;28;20073;-70
2022/09/10 14:33:19;;;;;;;1.73;0.80;;;;;;;;;;4994515;28;20894;-69
2022/09/10 14:35:45;;;;;;;0.80;0.80;;;;;;;;;;4994085;28;20030;-69
2022/09/10 14:38:20;;;;;;;0.70;0.70;;;;;;;;;;4993104;28;20034;-62
2022/09/10 14:40:46;;;;;;;0.60;0.60;;;;;;;;;;4992681;28;20485;-64
2022/09/10 14:43:15;;;;;;;0.82;0.82;;;;;;;;;;4995068;28;20026;-62
2022/09/10 14:45:41;;;;;;;0.88;0.88;;;;;;;;;;4991918;28;20034;-66
2022/09/10 14:48:25;;;;;;;0.93;0.93;;;;;;;;;;4990087;28;20473;-63
2022/09/10 14:51:00;;;;;;;0.80;0.80;;;;;;;;;;4991458;28;20036;-63
2022/09/10 14:53:25;;;;;;;4.10;0.90;;;;;;;;;;4990959;28;20041;-64